Time;durP1;ratioP1;P1;durP2;ratioP2;P2;SDS_P1;SDS_P2;PMS_P1;PMS_P2;Temp;Humidity;BMP_temperature;BMP_pressure;BME280_temperature;BME280_humidity;BME280_pressure;Samples;Min_cycle;Max_cycle;Signal;HPM_P1;HPM_P2
2024/02/09 00:00:48;;;;;;;27.40;16.73;;;;;;;4.14;100.00;98644.41;5071824;28;20500;-48
2024/02/09 00:03:18;;;;;;;27.33;16.20;;;;;;;4.16;100.00;98632.09;5071926;28;20531;-49
2024/02/09 00:05:49;;;;;;;26.90;16.92;;;;;;;4.17;100.00;98629.41;5072280;28;20124;-50
2024/02/09 00:08:18;;;;;;;28.52;16.08;;;;;;;4.18;100.00;98623.22;5072530;28;20041;-51
2024/02/09 00:10:48;;;;;;;28.27;17.08;;;;;;;4.21;100.00;98622.19;5072169;28;20045;-49
2024/02/09 00:13:16;;;;;;;29.65;17.30;;;;;;;4.25;100.00;98612.38;5072159;28;20119;-52
2024/02/09 00:15:47;;;;;;;26.88;16.02;;;;;;;4.35;100.00;98611.59;5072354;28;20056;-50
2024/02/09 00:18:16;;;;;;;26.52;16.05;;;;;;;4.34;100.00;98609.09;5072128;28;20101;-47
2024/02/09 00:20:45;;;;;;;25.85;15.80;;;;;;;4.38;100.00;98600.13;5072138;28;20488;-49
2024/02/09 00:23:14;;;;;;;27.85;16.45;;;;;;;4.40;100.00;98595.63;5073151;28;20580;-48
2024/02/09 00:25:49;;;;;;;28.98;16.58;;;;;;;4.43;100.00;98598.00;5076013;28;20036;-49
2024/02/09 00:28:17;;;;;;;28.38;17.67;;;;;;;4.50;100.00;98586.19;5076040;28;20454;-49
2024/02/09 00:30:47;;;;;;;28.20;16.35;;;;;;;4.50;100.00;98580.97;5074846;28;20123;-48
2024/02/09 00:33:15;;;;;;;28.80;16.95;;;;;;;4.54;100.00;98586.75;5072757;28;20045;-49
2024/02/09 00:35:44;;;;;;;30.65;17.70;;;;;;;4.56;100.00;98580.50;5074753;28;20499;-48
2024/02/09 00:38:15;;;;;;;26.85;16.40;;;;;;;4.54;100.00;98576.34;5074743;28;20090;-52
2024/02/09 00:40:43;;;;;;;28.60;16.92;;;;;;;4.53;100.00;98580.72;5075567;28;20064;-49
2024/02/09 00:43:12;;;;;;;26.33;16.05;;;;;;;4.52;100.00;98576.47;5075625;28;20048;-48
2024/02/09 00:45:40;;;;;;;27.15;16.50;;;;;;;4.55;100.00;98563.22;5075643;28;20072;-50
2024/02/09 00:48:10;;;;;;;27.15;16.42;;;;;;;4.65;100.00;98552.94;5075626;28;20045;-47
2024/02/09 00:50:40;;;;;;;28.17;16.23;;;;;;;4.71;100.00;98556.84;5075789;28;20048;-49
2024/02/09 00:53:10;;;;;;;31.00;15.65;;;;;;;4.72;100.00;98555.91;5075444;28;20048;-47
2024/02/09 00:55:39;;;;;;;29.15;16.52;;;;;;;4.78;100.00;98550.19;5075692;28;20123;-49
2024/02/09 00:58:07;;;;;;;27.67;15.43;;;;;;;4.86;100.00;98540.00;5075604;28;20048;-47
2024/02/09 01:00:40;;;;;;;27.17;14.63;;;;;;;4.86;100.00;98527.00;5073733;28;20424;-47
2024/02/09 01:03:10;;;;;;;27.83;15.93;;;;;;;4.94;100.00;98533.41;5072359;28;20032;-47
2024/02/09 01:05:39;;;;;;;26.27;14.93;;;;;;;5.03;100.00;98536.09;5073861;28;20044;-47
2024/02/09 01:08:08;;;;;;;25.85;14.85;;;;;;;5.12;100.00;98528.50;5075098;28;20079;-52
2024/02/09 01:10:43;;;;;;;26.70;14.82;;;;;;;5.15;100.00;98531.69;5075672;28;20044;-49
2024/02/09 02:46:50;;;;;;;22.80;8.85;;;;;;;7.79;100.00;69250.22;5073234;28;20127;-52
2024/02/09 03:05:55;;;;;;;19.83;8.52;;;;;;;8.04;100.00;69283.34;5072786;28;20452;-48
2024/02/09 03:08:23;;;;;;;20.67;8.05;;;;;;;8.01;100.00;69279.88;5071756;28;20554;-48
2024/02/09 03:11:11;;;;;;;20.27;7.95;;;;;;;8.02;100.00;69278.44;5068435;28;20506;-48
2024/02/09 03:13:44;;;;;;;21.60;8.20;;;;;;;7.99;100.00;69278.13;5070382;28;20377;-50
2024/02/09 03:16:17;;;;;;;20.15;8.32;;;;;;;8.00;100.00;69278.69;5069838;28;20068;-47
2024/02/09 03:18:45;;;;;;;17.75;7.65;;;;;;;8.00;100.00;69276.09;5072695;28;20090;-49
2024/02/09 03:21:20;;;;;;;20.98;8.05;;;;;;;8.04;100.00;69283.34;5071799;28;20045;-46
2024/02/09 03:23:48;;;;;;;20.40;8.63;;;;;;;8.03;100.00;69282.19;5071600;28;20584;-49
2024/02/09 03:26:16;;;;;;;28.23;9.32;;;;;;;8.01;100.00;69280.44;5072501;28;20044;-48
2024/02/09 03:28:45;;;;;;;24.17;8.50;;;;;;;8.00;100.00;69283.88;5072748;28;20070;-46
2024/02/09 03:31:13;;;;;;;21.17;8.18;;;;;;;8.05;100.00;69281.91;5070228;28;20523;-48
2024/02/09 03:33:43;;;;;;;21.05;8.10;;;;;;;8.02;100.00;69278.44;5070020;28;20585;-50
2024/02/09 03:36:12;;;;;;;21.67;7.82;;;;;;;8.02;100.00;69281.03;5071284;28;20051;-48
2024/02/09 03:38:41;;;;;;;23.50;8.50;;;;;;;8.04;100.00;69280.75;5069991;28;20403;-50
2024/02/09 03:41:09;;;;;;;21.98;7.90;;;;;;;8.04;100.00;69283.91;5068645;28;20064;-53
2024/02/09 03:43:38;;;;;;;23.13;8.15;;;;;;;8.02;100.00;69281.59;5072822;28;20430;-52
2024/02/09 03:46:06;;;;;;;21.17;7.95;;;;;;;8.03;100.00;69282.19;5072297;28;20119;-51
2024/02/09 03:48:34;;;;;;;19.30;8.43;;;;;;;8.08;100.00;69285.41;5072252;28;20426;-48
2024/02/09 03:51:06;;;;;;;20.00;9.02;;;;;;;8.06;100.00;69283.09;5072488;28;20052;-51
2024/02/09 03:53:34;;;;;;;22.23;8.18;;;;;;;8.10;100.00;69290.34;5072695;28;20507;-60
2024/02/09 03:56:03;;;;;;;22.70;8.18;;;;;;;8.09;100.00;69286.59;5072007;28;20072;-60
2024/02/09 03:58:31;;;;;;;19.92;8.25;;;;;;;8.07;100.00;69284.25;5071774;28;20048;-60
2024/02/09 04:01:02;;;;;;;16.10;7.90;;;;;;;8.07;100.00;69287.44;5073229;28;20496;-61
2024/02/09 04:03:30;;;;;;;22.10;8.02;;;;;;;8.07;100.00;69290.03;5071908;28;20060;-60
2024/02/09 04:05:58;;;;;;;16.83;7.78;;;;;;;8.09;100.00;69289.75;5072091;28;20040;-60
2024/02/09 04:08:28;;;;;;;16.83;7.63;;;;;;;8.11;100.00;69291.50;5072681;28;20047;-61
2024/02/09 04:10:56;;;;;;;20.42;7.93;;;;;;;8.12;100.00;69290.06;5072991;28;20048;-59
2024/02/09 04:13:25;;;;;;;19.70;8.93;;;;;;;8.12;100.00;69290.06;5072812;28;20049;-60
2024/02/09 04:15:54;;;;;;;16.67;7.57;;;;;;;8.11;100.00;69296.69;5072828;28;20492;-60
2024/02/09 04:18:22;;;;;;;18.75;8.25;;;;;;;8.13;100.00;69294.41;5072478;28;20047;-51
2024/02/09 04:20:50;;;;;;;18.67;7.75;;;;;;;8.15;100.00;69298.19;5069853;28;20044;-49
2024/02/09 04:23:18;;;;;;;16.73;7.20;;;;;;;8.13;100.00;69291.81;5069250;28;20479;-48
2024/02/09 04:25:48;;;;;;;16.95;7.28;;;;;;;8.12;100.00;69295.25;5068072;28;20053;-49
2024/02/09 04:28:17;;;;;;;16.23;7.40;;;;;;;8.13;100.00;69294.41;5071759;28;20044;-51
2024/02/09 04:30:46;;;;;;;16.73;6.75;;;;;;;8.13;100.00;69291.25;5072105;28;20037;-47
2024/02/09 04:33:16;;;;;;;17.95;6.40;;;;;;;8.16;100.00;69296.75;5069975;28;20049;-50
2024/02/09 04:35:45;;;;;;;14.73;6.30;;;;;;;8.15;100.00;69295.59;5067700;28;20507;-51
2024/02/09 04:38:15;;;;;;;18.38;6.80;;;;;;;8.17;100.00;69297.91;5068879;28;20068;-52
2024/02/09 04:40:45;;;;;;;15.98;7.00;;;;;;;8.13;100.00;69294.41;5068397;28;20071;-50
2024/02/09 04:43:14;;;;;;;19.40;7.28;;;;;;;8.18;100.00;69299.06;5070554;28;20377;-47
2024/02/09 04:45:43;;;;;;;14.35;7.05;;;;;;;8.15;100.00;69292.97;5068535;28;20055;-48
2024/02/09 04:48:12;;;;;;;13.07;6.38;;;;;;;8.16;100.00;69296.75;5068795;28;20049;-47
2024/02/09 04:50:40;;;;;;;11.65;6.22;;;;;;;8.15;100.00;69296.16;5068461;28;20094;-51
2024/02/09 04:53:11;;;;;;;13.80;6.25;;;;;;;8.16;100.00;69294.16;5071987;28;20387;-51
2024/02/09 04:55:40;;;;;;;11.18;5.75;;;;;;;8.17;100.00;69297.91;5070452;28;20503;-48
2024/02/09 04:58:08;;;;;;;14.50;6.03;;;;;;;8.16;100.00;69304.56;5069771;28;20050;-48
2024/02/09 05:00:38;;;;;;;14.50;5.47;;;;;;;8.19;100.00;69302.84;5069208;28;20052;-47
2024/02/09 05:03:06;;;;;;;13.63;5.40;;;;;;;8.19;100.00;69300.25;5068990;28;20072;-51
2024/02/09 05:05:34;;;;;;;12.75;5.75;;;;;;;8.19;100.00;69297.63;5071714;28;20052;-49
2024/02/09 05:08:05;;;;;;;13.82;5.60;;;;;;;8.19;100.00;69300.81;5071545;28;20044;-49
2024/02/09 05:10:33;;;;;;;13.60;5.10;;;;;;;8.16;100.00;69297.31;5069744;28;20139;-48
2024/02/09 05:13:02;;;;;;;16.35;5.50;;;;;;;8.19;100.00;69295.63;5070972;28;20384;-52
2024/02/09 05:15:33;;;;;;;12.70;5.18;;;;;;;8.22;100.00;69301.72;5070417;28;20049;-48
2024/02/09 05:18:03;;;;;;;10.57;5.00;;;;;;;8.23;100.00;69305.47;5075115;28;20124;-48
2024/02/09 05:20:31;;;;;;;11.10;5.10;;;;;;;8.26;100.00;69308.38;5075183;28;20083;-47
2024/02/09 05:23:00;;;;;;;13.07;4.55;;;;;;;8.24;100.00;69306.66;5075019;28;20052;-52
2024/02/09 05:25:28;;;;;;;11.52;5.20;;;;;;;8.30;100.00;69313.03;5071303;28;20126;-48
2024/02/09 05:27:57;;;;;;;12.90;4.80;;;;;;;8.29;100.00;69306.69;5071749;28;20558;-48
2024/02/09 05:30:29;;;;;;;11.02;4.93;;;;;;;8.31;100.00;69311.03;5075260;28;20082;-47
2024/02/09 05:32:57;;;;;;;11.07;4.93;;;;;;;8.34;100.00;69311.94;5075174;28;20429;-46
2024/02/09 05:35:27;;;;;;;12.73;4.55;;;;;;;8.36;100.00;69314.28;5075016;28;20080;-49
2024/02/09 05:37:55;;;;;;;9.48;4.30;;;;;;;8.33;100.00;69318.56;5072259;28;20044;-46
2024/02/09 05:40:23;;;;;;;11.18;4.63;;;;;;;8.34;100.00;69317.13;5070080;28;20445;-47
2024/02/09 05:42:52;;;;;;;10.27;4.57;;;;;;;8.34;100.00;69315.09;5072456;28;20059;-47
2024/02/09 05:45:22;;;;;;;11.65;4.63;;;;;;;8.38;100.00;69322.38;5074742;28;20048;-48
2024/02/09 05:47:50;;;;;;;9.13;4.88;;;;;;;8.36;100.00;69320.03;5074649;28;20097;-47
2024/02/09 05:50:21;;;;;;;11.75;4.63;;;;;;;8.34;100.00;69315.09;5074828;28;20048;-49
2024/02/09 05:53:01;;;;;;;13.07;4.17;;;;;;;8.36;100.00;69320.03;5074474;28;20051;-48
2024/02/09 05:55:30;;;;;;;9.15;3.85;;;;;;;8.39;100.00;69320.94;5074798;28;20055;-61
2024/02/09 05:58:01;;;;;;;8.93;3.60;;;;;;;8.42;100.00;69327.03;5074923;28;20063;-48
2024/02/09 06:00:30;;;;;;;14.00;4.28;;;;;;;8.38;100.00;69322.38;5074593;28;20052;-47
2024/02/09 06:02:58;;;;;;;12.63;4.10;;;;;;;8.41;100.00;69322.69;5074515;28;20036;-48
2024/02/09 06:05:26;;;;;;;10.25;4.38;;;;;;;8.40;100.00;69322.09;5074583;28;20044;-61
2024/02/09 06:07:57;;;;;;;8.65;3.50;;;;;;;8.45;100.00;69329.97;5073150;28;20039;-60
2024/02/09 06:10:27;;;;;;;6.75;3.55;;;;;;;8.46;100.00;69328.53;5071911;28;20051;-60
2024/02/09 06:12:55;;;;;;;10.85;3.80;;;;;;;8.42;100.00;69326.44;5073512;28;20063;-61
2024/02/09 06:15:23;;;;;;;9.07;3.78;;;;;;;8.41;100.00;69325.28;5072590;28;20079;-61
2024/02/09 06:17:52;;;;;;;8.35;3.28;;;;;;;8.41;100.00;69323.28;5072487;28;20086;-61
2024/02/09 06:20:22;;;;;;;9.35;3.45;;;;;;;8.39;100.00;69320.94;5071964;28;20044;-62
2024/02/09 06:22:50;;;;;;;9.60;3.67;;;;;;;8.43;100.00;69330.22;5072974;28;20045;-60
2024/02/09 06:25:19;;;;;;;6.43;2.90;;;;;;;8.41;100.00;69325.28;5074252;28;20139;-61
2024/02/09 06:27:48;;;;;;;8.30;3.40;;;;;;;8.43;100.00;69327.63;5074039;28;20045;-60
2024/02/09 06:30:17;;;;;;;7.53;3.10;;;;;;;8.46;100.00;69328.53;5072668;28;20044;-61
2024/02/09 06:32:45;;;;;;;7.70;2.92;;;;;;;8.45;100.00;69329.97;5070993;28;20060;-61
2024/02/09 06:35:13;;;;;;;9.45;3.55;;;;;;;8.47;100.00;69327.09;5073843;28;20341;-60
2024/02/09 06:37:42;;;;;;;7.32;3.33;;;;;;;8.42;100.00;69326.44;5074011;28;20404;-60
2024/02/09 06:40:13;;;;;;;9.38;3.35;;;;;;;8.41;100.00;69325.88;5073632;28;20065;-61
2024/02/09 06:42:43;;;;;;;7.07;3.50;;;;;;;8.42;100.00;69327.03;5072387;28;20052;-61
2024/02/09 06:45:14;;;;;;;7.85;3.72;;;;;;;8.41;100.00;69325.88;5071546;28;20052;-61
2024/02/09 06:47:42;;;;;;;8.88;3.28;;;;;;;8.41;100.00;69322.69;5072714;28;20045;-60
2024/02/09 06:50:11;;;;;;;10.15;3.55;;;;;;;8.41;100.00;69325.88;5071403;28;21077;-61
2024/02/09 06:52:41;;;;;;;6.35;2.90;;;;;;;8.41;100.00;69320.09;5071150;28;20074;-60
2024/02/09 06:55:11;;;;;;;9.38;3.50;;;;;;;8.39;100.00;69322.97;5070349;28;20041;-61
2024/02/09 06:57:44;;;;;;;9.07;3.05;;;;;;;8.37;100.00;69318.63;5071331;28;20048;-61
2024/02/09 07:00:16;;;;;;;7.97;3.42;;;;;;;8.35;100.00;69318.31;5071309;28;20060;-61
2024/02/09 07:02:48;;;;;;;7.80;3.08;;;;;;;8.38;100.00;69319.78;5071351;28;20045;-61
2024/02/09 07:05:19;;;;;;;9.77;3.47;;;;;;;8.39;100.00;69323.53;5071613;28;20131;-60
2024/02/09 07:07:49;;;;;;;8.50;2.85;;;;;;;8.41;100.00;69325.88;5071727;28;20040;-60
2024/02/09 07:10:22;;;;;;;11.40;3.60;;;;;;;8.37;100.00;69318.03;5071722;28;20037;-60
2024/02/09 07:12:53;;;;;;;7.97;2.95;;;;;;;8.38;100.00;69317.16;5072737;28;20400;-60
2024/02/09 07:15:24;;;;;;;7.63;3.37;;;;;;;8.37;100.00;69318.63;5071967;28;20041;-61
2024/02/09 07:17:55;;;;;;;10.35;3.08;;;;;;;8.37;100.00;69323.81;5071619;28;20449;-60
2024/02/09 07:20:24;;;;;;;7.50;3.20;;;;;;;8.35;100.00;69315.69;5072016;28;20082;-60
2024/02/09 07:22:53;;;;;;;8.73;3.33;;;;;;;8.38;100.00;69319.19;5073239;28;20044;-60
2024/02/09 07:25:21;;;;;;;8.82;3.55;;;;;;;8.37;100.00;69320.63;5073214;28;20106;-60
2024/02/09 07:27:49;;;;;;;11.15;3.50;;;;;;;8.43;100.00;69327.63;5073123;28;20032;-60
2024/02/09 07:30:19;;;;;;;9.82;3.80;;;;;;;8.41;100.00;69323.28;5071769;28;20044;-60
2024/02/09 07:32:49;;;;;;;10.48;3.65;;;;;;;8.39;100.00;69323.53;5072105;28;20052;-60
2024/02/09 07:35:18;;;;;;;7.80;3.42;;;;;;;8.38;100.00;69322.38;5071644;28;20557;-60
2024/02/09 07:37:46;;;;;;;7.22;2.85;;;;;;;8.40;100.00;69324.13;5071835;28;20504;-60
2024/02/09 07:40:17;;;;;;;9.65;3.50;;;;;;;8.42;100.00;69326.44;5070206;28;20151;-60
2024/02/09 07:42:48;;;;;;;10.02;3.78;;;;;;;8.43;100.00;69327.63;5073320;28;20052;-61
2024/02/09 07:45:16;;;;;;;9.63;3.53;;;;;;;8.48;100.00;69332.88;5072399;28;20443;-60
2024/02/09 07:47:45;;;;;;;7.10;3.30;;;;;;;8.49;100.00;69332.03;5072029;28;20037;-60
2024/02/09 07:50:15;;;;;;;9.82;3.78;;;;;;;8.50;100.00;69335.78;5071898;28;20048;-60
2024/02/09 07:52:43;;;;;;;12.25;3.58;;;;;;;8.52;100.00;69338.13;5070344;28;20452;-61
2024/02/09 07:55:13;;;;;;;10.27;3.58;;;;;;;8.54;100.00;69339.88;5070305;28;20041;-60
2024/02/09 07:57:43;;;;;;;10.50;3.83;;;;;;;8.58;100.00;69341.94;5071624;28;20047;-60
2024/02/09 08:00:17;;;;;;;8.63;3.10;;;;;;;8.57;100.00;69338.16;5071124;28;20040;-60
2024/02/09 08:02:45;;;;;;;11.38;3.20;;;;;;;8.61;100.00;69346.00;5072448;28;20127;-60
2024/02/09 08:05:18;;;;;;;11.45;3.90;;;;;;;8.68;100.00;69353.59;5070822;28;20052;-60
2024/02/09 08:07:48;;;;;;;8.15;3.20;;;;;;;8.67;100.00;69355.03;5070496;28;20063;-60
2024/02/09 08:10:17;;;;;;;7.90;3.72;;;;;;;8.68;100.00;69355.59;5071933;28;20461;-60
2024/02/09 08:12:46;;;;;;;12.27;3.60;;;;;;;8.71;100.00;69361.69;5072312;28;20052;-60
2024/02/09 08:15:14;;;;;;;11.07;3.60;;;;;;;8.71;100.00;69357.09;5071957;28;20052;-60
2024/02/09 08:17:47;;;;;;;12.68;3.60;;;;;;;8.69;100.00;69351.56;5070993;28;20048;-59
2024/02/09 08:20:23;;;;;;;9.27;3.67;;;;;;;8.67;100.00;69355.03;5071888;28;20051;-60
2024/02/09 08:22:53;;;;;;;10.07;4.07;;;;;;;8.66;100.00;69348.66;5071109;28;20044;-60
2024/02/09 08:25:21;;;;;;;8.60;3.47;;;;;;;8.66;100.00;69350.66;5070379;28;20127;-60
2024/02/09 08:27:49;;;;;;;10.05;4.53;;;;;;;8.69;100.00;69354.75;5071071;28;20458;-60
2024/02/09 08:30:17;;;;;;;10.30;3.70;;;;;;;8.72;100.00;69355.06;5071690;28;20067;-59
2024/02/09 08:32:46;;;;;;;11.95;4.18;;;;;;;8.72;100.00;69360.28;5072651;28;20048;-60
2024/02/09 08:35:14;;;;;;;13.23;4.18;;;;;;;8.74;100.00;69365.78;5072297;28;20124;-60
2024/02/09 08:37:44;;;;;;;9.80;3.90;;;;;;;8.82;100.00;69371.94;5072377;28;20119;-61
2024/02/09 08:40:12;;;;;;;9.75;3.88;;;;;;;8.78;100.00;69367.84;5071970;28;20049;-59
2024/02/09 08:42:40;;;;;;;9.77;3.65;;;;;;;8.79;100.00;69368.41;5070380;28;20079;-59
2024/02/09 08:45:10;;;;;;;8.45;3.25;;;;;;;8.80;100.00;69367.56;5073624;28;20411;-59
2024/02/09 08:47:39;;;;;;;10.00;3.97;;;;;;;8.83;100.00;69369.91;5073183;28;20126;-59
2024/02/09 08:50:10;;;;;;;11.23;4.40;;;;;;;8.80;100.00;69367.56;5073534;28;20068;-60
2024/02/09 08:52:38;;;;;;;8.60;3.60;;;;;;;8.82;100.00;69371.94;5075417;28;20060;-61
2024/02/09 08:55:09;;;;;;;8.68;3.78;;;;;;;8.83;100.00;69373.09;5073079;28;20058;-61
2024/02/09 08:57:38;;;;;;;11.27;4.50;;;;;;;8.87;100.00;69375.13;5074758;28;20049;-60
2024/02/09 09:00:07;;;;;;;12.77;4.10;;;;;;;8.89;100.00;69376.88;5075958;28;20143;-47
2024/02/09 09:02:35;;;;;;;12.15;4.13;;;;;;;8.94;100.00;69383.31;5075269;28;20044;-47
2024/02/09 09:05:06;;;;;;;16.10;4.38;;;;;;;8.98;100.00;69386.81;5075318;28;20128;-51
2024/02/09 09:07:36;;;;;;;11.23;3.75;;;;;;;9.01;100.00;69392.91;5075450;28;20052;-52
2024/02/09 09:10:05;;;;;;;11.13;3.92;;;;;;;9.03;100.00;69395.25;5075067;28;20041;-51
2024/02/09 09:12:38;;;;;;;11.98;3.90;;;;;;;9.07;100.00;69397.88;5075340;28;20059;-48
2024/02/09 09:15:07;;;;;;;9.90;3.78;;;;;;;9.09;100.00;69399.63;5075232;28;20120;-48
2024/02/09 09:17:35;;;;;;;10.77;4.00;;;;;;;9.19;100.00;69413.28;5075211;28;20059;-49
2024/02/09 09:20:04;;;;;;;10.57;4.22;;;;;;;9.30;100.00;69426.13;5074880;28;20411;-50
2024/02/09 09:22:35;;;;;;;11.02;4.38;;;;;;;9.41;100.00;69435.78;5075151;28;20048;-48
2024/02/09 09:25:07;;;;;;;10.85;4.18;;;;;;;9.42;100.00;69439.53;5071234;28;20060;-50
2024/02/09 09:27:36;;;;;;;9.60;4.63;;;;;;;9.44;100.00;69439.84;5070456;28;20059;-51
2024/02/09 09:30:06;;;;;;;7.65;4.47;;;;;;;9.51;100.00;69444.25;5074248;28;20070;-46
2024/02/09 09:32:34;;;;;;;10.07;3.78;;;;;;;9.59;100.00;69459.34;5071445;28;20094;-47
2024/02/09 09:35:02;;;;;;;15.27;3.85;;;;;;;9.61;100.00;69461.69;5072789;28;20400;-46
2024/02/09 09:37:31;;;;;;;11.02;4.07;;;;;;;9.62;100.00;69462.84;5074732;28;20056;-45
2024/02/09 09:39:59;;;;;;;11.38;4.20;;;;;;;9.61;100.00;69461.09;5070069;28;20063;-47
2024/02/09 09:42:28;;;;;;;10.40;3.95;;;;;;;9.60;100.00;69457.91;5071381;28;20083;-48
2024/02/09 09:44:58;;;;;;;8.07;3.75;;;;;;;9.57;100.00;69454.44;5072589;28;20101;-48
2024/02/09 09:47:28;;;;;;;11.13;3.97;;;;;;;9.57;100.00;69454.44;5071257;28;20120;-47
2024/02/09 09:49:57;;;;;;;13.30;4.50;;;;;;;9.55;100.00;69449.47;5073394;28;20392;-51
2024/02/09 09:52:34;;;;;;;10.27;3.78;;;;;;;9.54;100.00;69453.53;5071614;28;20041;-50
2024/02/09 09:55:02;;;;;;;11.40;4.00;;;;;;;9.53;100.00;69449.75;5069119;28;20376;-52
2024/02/09 09:57:31;;;;;;;9.75;3.90;;;;;;;9.57;100.00;69454.44;5072377;28;20072;-51
2024/02/09 10:00:03;;;;;;;11.05;3.78;;;;;;;9.58;100.00;69458.19;5074419;28;20123;-49
2024/02/09 10:02:32;;;;;;;10.47;4.13;;;;;;;9.69;100.00;69462.03;5072045;28;20119;-48
2024/02/09 10:05:00;;;;;;;10.35;4.03;;;;;;;9.76;100.00;69475.41;5070660;28;20123;-46
2024/02/09 10:07:30;;;;;;;9.07;3.85;;;;;;;9.78;100.00;69480.94;5074050;28;20119;-49
2024/02/09 10:10:01;;;;;;;10.25;4.25;;;;;;;9.77;100.00;69477.16;5072309;28;20561;-49
2024/02/09 10:12:32;;;;;;;14.05;4.40;;;;;;;9.77;100.00;69479.75;5070702;28;20369;-50
2024/02/09 10:15:02;;;;;;;10.20;3.65;;;;;;;9.82;100.00;69485.59;5072734;28;20090;-50
2024/02/09 10:17:31;;;;;;;12.90;4.40;;;;;;;9.90;100.00;69493.78;5069928;28;20467;-48
2024/02/09 10:20:00;;;;;;;11.48;3.65;;;;;;;9.91;100.00;69489.72;5070533;28;20584;-48
2024/02/09 10:22:28;;;;;;;8.00;4.05;;;;;;;9.92;100.00;69496.09;5072675;28;20063;-48
2024/02/09 10:24:56;;;;;;;12.63;3.67;;;;;;;9.97;100.00;69501.94;5073988;28;20102;-48
2024/02/09 10:27:25;;;;;;;8.80;3.67;;;;;;;10.04;100.00;69506.91;5073954;28;20051;-47
2024/02/09 10:29:55;;;;;;;8.68;3.78;;;;;;;10.05;100.00;69508.06;5073785;28;20044;-49
2024/02/09 10:32:27;;;;;;;9.25;3.88;;;;;;;10.07;100.00;69513.00;5073894;28;20080;-51
2024/02/09 10:34:55;;;;;;;8.95;4.05;;;;;;;10.11;100.00;69509.88;5073692;28;20048;-49
2024/02/09 10:37:24;;;;;;;11.20;3.70;;;;;;;10.16;100.00;69523.53;5073750;28;20051;-51
2024/02/09 10:39:59;;;;;;;10.63;3.78;;;;;;;10.17;100.00;69524.69;5068590;28;20068;-50
2024/02/09 10:42:29;;;;;;;9.52;3.30;;;;;;;10.20;100.00;69524.97;5070419;28;20119;-48
2024/02/09 10:44:58;;;;;;;6.97;3.50;;;;;;;10.28;100.00;69536.94;5073365;28;20511;-48
2024/02/09 10:47:41;;;;;;;9.40;3.75;;;;;;;10.27;100.00;69533.75;5073508;28;20040;-48
2024/02/09 10:50:12;;;;;;;9.27;3.42;;;;;;;10.32;100.00;69536.38;5069964;28;20039;-48
2024/02/09 10:52:44;;;;;;;8.73;3.40;;;;;;;10.32;100.00;69536.38;5068913;28;20487;-48
2024/02/09 10:55:14;;;;;;;8.90;3.47;;;;;;;10.34;100.00;69541.31;5072755;28;20044;-48
2024/02/09 10:57:45;;;;;;;10.60;3.42;;;;;;;10.40;100.00;69550.38;5073190;28;20061;-48
2024/02/09 11:00:16;;;;;;;10.40;3.97;;;;;;;10.46;100.00;69557.97;5073264;28;20123;-51
2024/02/09 11:02:46;;;;;;;11.00;3.90;;;;;;;10.54;100.00;69564.13;5073115;28;20090;-47
2024/02/09 11:05:16;;;;;;;9.02;3.83;;;;;;;10.63;100.00;69572.00;5073065;28;20094;-51
2024/02/09 11:07:49;;;;;;;10.70;3.35;;;;;;;10.66;100.00;69577.50;5070244;28;20040;-49
2024/02/09 11:10:18;;;;;;;9.77;3.30;;;;;;;10.68;100.00;69582.47;5069292;28;20047;-48
2024/02/09 11:12:57;;;;;;;7.00;2.75;;;;;;;10.73;100.00;69585.69;5072839;28;20070;-49
2024/02/09 11:15:32;;;;;;;8.02;2.83;;;;;;;10.71;100.00;69585.38;5072468;28;20041;-48
2024/02/09 11:18:02;;;;;;;8.43;2.75;;;;;;;10.70;100.00;69579.00;5072681;28;20064;-51
2024/02/09 11:20:32;;;;;;;8.35;3.00;;;;;;;10.70;100.00;69576.38;5072784;28;20106;-50
2024/02/09 11:23:01;;;;;;;8.35;2.90;;;;;;;10.70;100.00;69579.00;5072781;28;20494;-49
2024/02/09 11:25:34;;;;;;;9.02;2.90;;;;;;;10.68;100.00;69581.91;5073110;28;20119;-50
2024/02/09 11:28:07;;;;;;;8.93;3.10;;;;;;;10.70;100.00;69581.59;5072756;28;20055;-49
2024/02/09 11:30:38;;;;;;;10.45;3.15;;;;;;;10.68;100.00;69576.69;5072256;28;20063;-48
2024/02/09 11:33:11;;;;;;;8.63;3.17;;;;;;;10.68;100.00;69579.88;5069422;28;20120;-51
2024/02/09 11:35:39;;;;;;;8.48;3.33;;;;;;;10.66;100.00;69580.13;5102436;28;20056;-51
2024/02/09 11:38:09;;;;;;;9.52;2.95;;;;;;;10.68;100.00;69579.88;5070192;28;20056;-50
2024/02/09 11:40:37;;;;;;;10.45;3.17;;;;;;;10.72;100.00;69583.97;5067372;28;20147;-47
2024/02/09 11:43:05;;;;;;;11.35;3.20;;;;;;;10.73;100.00;69585.69;5071871;28;20041;-50
2024/02/09 11:45:36;;;;;;;9.82;2.40;;;;;;;10.75;100.00;69584.84;5072529;28;20361;-51
2024/02/09 11:48:06;;;;;;;7.95;3.22;;;;;;;10.80;100.00;69593.28;5072518;28;20056;-54
2024/02/09 11:50:36;;;;;;;8.27;3.28;;;;;;;10.78;100.00;69590.94;5071110;28;20541;-50
2024/02/09 11:53:05;;;;;;;8.45;2.92;;;;;;;10.78;100.00;69590.94;5070471;28;20102;-47
2024/02/09 11:55:41;;;;;;;8.18;2.72;;;;;;;10.79;100.00;69586.91;5067761;28;20519;-49
2024/02/09 11:58:10;;;;;;;9.35;2.53;;;;;;;10.79;100.00;69592.69;5069506;28;20480;-49
2024/02/09 12:00:40;;;;;;;12.35;2.72;;;;;;;10.83;100.00;69597.38;5072554;28;20404;-48
2024/02/09 12:03:10;;;;;;;7.90;2.03;;;;;;;10.87;100.00;69600.88;5072326;28;20743;-50
2024/02/09 12:05:50;;;;;;;8.45;2.63;;;;;;;10.88;100.00;69604.66;5072253;28;20059;-51
2024/02/09 12:08:19;;;;;;;10.52;3.17;;;;;;;10.89;100.00;69601.16;5071658;28;20550;-51
2024/02/09 12:10:50;;;;;;;7.60;2.78;;;;;;;10.92;100.00;69606.69;5067537;28;20106;-49
2024/02/09 12:13:20;;;;;;;10.98;2.97;;;;;;;10.94;100.00;69612.22;5070542;28;20082;-49
2024/02/09 12:15:49;;;;;;;10.05;2.95;;;;;;;10.98;100.00;69611.69;5072567;28;20041;-49
2024/02/09 12:18:17;;;;;;;7.53;2.63;;;;;;;11.04;100.00;69620.13;5070909;28;20151;-50
2024/02/09 12:20:47;;;;;;;8.10;2.30;;;;;;;11.10;100.00;69629.75;5076099;28;20062;-50
2024/02/09 12:23:18;;;;;;;8.38;2.50;;;;;;;11.24;100.00;69643.47;5076232;28;20519;-49
2024/02/09 12:25:48;;;;;;;9.07;2.53;;;;;;;11.35;100.00;69653.13;5076346;28;20094;-49
2024/02/09 12:28:24;;;;;;;7.30;2.17;;;;;;;11.43;100.00;69672.94;5076116;28;20044;-51
2024/02/09 12:30:53;;;;;;;7.45;2.40;;;;;;;11.51;100.00;69671.25;5074865;28;20048;-49
2024/02/09 12:33:23;;;;;;;7.70;2.42;;;;;;;11.55;100.00;69673.28;5074432;28;20483;-53
2024/02/09 12:35:56;;;;;;;7.68;2.60;;;;;;;11.59;100.00;69677.97;5072758;28;20132;-49
2024/02/09 12:38:24;;;;;;;8.27;2.35;;;;;;;11.73;100.00;69696.34;5072644;28;20098;-51
2024/02/09 12:40:56;;;;;;;6.68;1.90;;;;;;;11.71;100.00;69698.66;5073702;28;20416;-50
2024/02/09 12:43:26;;;;;;;7.63;2.28;;;;;;;11.75;100.00;69700.72;5072990;28;20439;-50
2024/02/09 12:45:54;;;;;;;9.70;2.70;;;;;;;11.74;100.00;69694.91;5073341;28;20082;-47
2024/02/09 12:48:22;;;;;;;7.78;2.13;;;;;;;11.74;100.00;69705.38;5075126;28;20054;-48
2024/02/09 12:50:52;;;;;;;6.45;2.10;;;;;;;11.79;100.00;69705.97;5072410;28;20047;-48
2024/02/09 12:53:22;;;;;;;9.15;2.63;;;;;;;11.86;100.00;69712.97;5074344;28;20079;-47
2024/02/09 12:55:51;;;;;;;6.68;2.30;;;;;;;11.88;100.00;69713.28;5071882;28;20083;-48
2024/02/09 12:58:20;;;;;;;16.08;2.10;;;;;;;11.86;100.00;69712.97;5072130;28;20395;-47
2024/02/09 13:00:51;;;;;;;11.30;2.80;;;;;;;11.82;100.00;69712.09;5070953;28;20040;-50
2024/02/09 13:03:21;;;;;;;7.00;2.53;;;;;;;11.83;100.00;69712.66;5070643;28;20056;-47
2024/02/09 13:05:52;;;;;;;6.07;2.10;;;;;;;11.83;100.00;69707.44;5072363;28;20545;-48
2024/02/09 13:08:22;;;;;;;6.32;2.25;;;;;;;11.83;100.00;69707.44;5074800;28;20036;-47
2024/02/09 13:10:51;;;;;;;7.28;1.95;;;;;;;11.84;100.00;69713.84;5069049;28;20098;-48
2024/02/09 13:13:22;;;;;;;8.98;2.25;;;;;;;11.85;100.00;69709.78;5073177;28;20115;-47
2024/02/09 13:15:50;;;;;;;9.35;2.35;;;;;;;11.89;100.00;69714.47;5074134;28;20050;-48
2024/02/09 13:18:18;;;;;;;9.50;2.35;;;;;;;11.86;100.00;69708.31;5071652;28;20044;-47
2024/02/09 13:20:46;;;;;;;6.93;2.20;;;;;;;11.86;100.00;69718.78;5074603;28;20062;-48
2024/02/09 13:23:14;;;;;;;8.10;2.13;;;;;;;11.85;100.00;69707.16;5075006;28;20059;-48
2024/02/09 13:25:44;;;;;;;6.25;1.85;;;;;;;11.86;100.00;69712.97;5074729;28;20381;-49
2024/02/09 13:28:16;;;;;;;6.13;2.20;;;;;;;11.82;100.00;69708.88;5073860;28;20404;-49